sensor_id;sensor_type;location;lat;lon;timestamp;P1;durP1;ratioP1;P2;durP2;ratioP2
40995;SDS011;26723;57.478;12.066;2023-05-09T00:01:16;2.20;;;2.10;;
40995;SDS011;26723;57.478;12.066;2023-05-09T00:04:25;3.37;;;2.43;;
40995;SDS011;26723;57.478;12.066;2023-05-09T00:07:33;2.37;;;2.17;;
40995;SDS011;26723;57.478;12.066;2023-05-09T00:10:41;2.13;;;2.00;;
40995;SDS011;26723;57.478;12.066;2023-05-09T00:13:50;2.00;;;1.90;;
40995;SDS011;26723;57.478;12.066;2023-05-09T00:17:00;2.60;;;2.40;;
40995;SDS011;26723;57.478;12.066;2023-05-09T00:20:09;2.50;;;2.30;;
40995;SDS011;26723;57.478;12.066;2023-05-09T00:23:18;2.47;;;2.27;;
40995;SDS011;26723;57.478;12.066;2023-05-09T00:26:26;2.47;;;2.37;;
40995;SDS011;26723;57.478;12.066;2023-05-09T00:29:35;2.77;;;2.57;;
40995;SDS011;26723;57.478;12.066;2023-05-09T00:32:45;2.10;;;2.00;;
40995;SDS011;26723;57.478;12.066;2023-05-09T00:35:53;2.53;;;2.23;;
40995;SDS011;26723;57.478;12.066;2023-05-09T00:39:02;3.05;;;2.53;;
40995;SDS011;26723;57.478;12.066;2023-05-09T00:42:10;2.40;;;2.30;;
40995;SDS011;26723;57.478;12.066;2023-05-09T00:45:19;2.47;;;2.00;;
40995;SDS011;26723;57.478;12.066;2023-05-09T00:48:29;2.30;;;2.10;;
40995;SDS011;26723;57.478;12.066;2023-05-09T00:51:38;2.63;;;2.53;;
40995;SDS011;26723;57.478;12.066;2023-05-09T00:54:47;2.10;;;2.00;;
40995;SDS011;26723;57.478;12.066;2023-05-09T00:57:56;2.37;;;2.27;;
40995;SDS011;26723;57.478;12.066;2023-05-09T01:01:04;2.00;;;1.90;;
40995;SDS011;26723;57.478;12.066;2023-05-09T01:04:15;1.90;;;1.80;;
40995;SDS011;26723;57.478;12.066;2023-05-09T01:07:25;2.70;;;2.50;;
40995;SDS011;26723;57.478;12.066;2023-05-09T01:10:42;2.40;;;2.30;;
40995;SDS011;26723;57.478;12.066;2023-05-09T01:13:56;2.50;;;2.30;;
40995;SDS011;26723;57.478;12.066;2023-05-09T01:17:15;2.10;;;2.00;;
40995;SDS011;26723;57.478;12.066;2023-05-09T01:20:32;2.87;;;2.63;;
40995;SDS011;26723;57.478;12.066;2023-05-09T01:27:32;2.30;;;2.20;;
40995;SDS011;26723;57.478;12.066;2023-05-09T01:30:51;2.40;;;2.20;;
40995;SDS011;26723;57.478;12.066;2023-05-09T01:34:01;2.10;;;2.00;;
40995;SDS011;26723;57.478;12.066;2023-05-09T01:37:13;2.57;;;2.43;;
40995;SDS011;26723;57.478;12.066;2023-05-09T01:40:23;2.33;;;2.20;;
40995;SDS011;26723;57.478;12.066;2023-05-09T01:43:37;2.40;;;2.20;;
40995;SDS011;26723;57.478;12.066;2023-05-09T01:46:48;2.47;;;2.30;;
40995;SDS011;26723;57.478;12.066;2023-05-09T01:50:01;2.30;;;2.20;;
40995;SDS011;26723;57.478;12.066;2023-05-09T01:53:11;2.60;;;2.40;;
40995;SDS011;26723;57.478;12.066;2023-05-09T01:56:21;2.17;;;2.03;;
40995;SDS011;26723;57.478;12.066;2023-05-09T01:59:31;2.10;;;2.00;;
40995;SDS011;26723;57.478;12.066;2023-05-09T02:02:42;2.20;;;2.10;;
40995;SDS011;26723;57.478;12.066;2023-05-09T02:05:51;2.27;;;2.07;;
40995;SDS011;26723;57.478;12.066;2023-05-09T02:09:02;2.40;;;2.30;;
40995;SDS011;26723;57.478;12.066;2023-05-09T02:12:11;2.60;;;2.40;;
40995;SDS011;26723;57.478;12.066;2023-05-09T02:15:19;2.70;;;2.50;;
40995;SDS011;26723;57.478;12.066;2023-05-09T02:18:30;2.77;;;2.57;;
40995;SDS011;26723;57.478;12.066;2023-05-09T02:21:39;2.63;;;2.43;;
40995;SDS011;26723;57.478;12.066;2023-05-09T02:24:49;4.50;;;2.33;;
40995;SDS011;26723;57.478;12.066;2023-05-09T02:27:57;2.53;;;2.33;;
40995;SDS011;26723;57.478;12.066;2023-05-09T02:31:07;2.33;;;2.23;;
40995;SDS011;26723;57.478;12.066;2023-05-09T02:34:20;3.53;;;3.23;;
40995;SDS011;26723;57.478;12.066;2023-05-09T02:37:29;3.87;;;3.57;;
40995;SDS011;26723;57.478;12.066;2023-05-09T02:40:38;4.27;;;3.90;;
40995;SDS011;26723;57.478;12.066;2023-05-09T02:43:49;3.70;;;3.40;;
40995;SDS011;26723;57.478;12.066;2023-05-09T02:46:59;3.07;;;2.87;;
40995;SDS011;26723;57.478;12.066;2023-05-09T02:50:09;2.70;;;2.50;;
40995;SDS011;26723;57.478;12.066;2023-05-09T02:53:18;2.73;;;2.63;;
40995;SDS011;26723;57.478;12.066;2023-05-09T02:56:26;6.80;;;2.63;;
40995;SDS011;26723;57.478;12.066;2023-05-09T02:59:35;2.73;;;2.40;;
40995;SDS011;26723;57.478;12.066;2023-05-09T03:02:43;2.30;;;2.20;;
40995;SDS011;26723;57.478;12.066;2023-05-09T03:05:56;3.00;;;2.60;;
40995;SDS011;26723;57.478;12.066;2023-05-09T03:09:04;2.93;;;2.70;;
40995;SDS011;26723;57.478;12.066;2023-05-09T03:12:13;2.67;;;2.47;;
40995;SDS011;26723;57.478;12.066;2023-05-09T03:15:22;2.30;;;2.20;;
40995;SDS011;26723;57.478;12.066;2023-05-09T03:18:30;2.57;;;2.37;;
40995;SDS011;26723;57.478;12.066;2023-05-09T03:21:40;2.57;;;2.47;;
40995;SDS011;26723;57.478;12.066;2023-05-09T03:24:49;2.80;;;2.60;;
40995;SDS011;26723;57.478;12.066;2023-05-09T03:27:57;4.93;;;2.40;;
40995;SDS011;26723;57.478;12.066;2023-05-09T03:31:06;2.90;;;2.80;;
40995;SDS011;26723;57.478;12.066;2023-05-09T03:34:15;2.30;;;2.17;;
40995;SDS011;26723;57.478;12.066;2023-05-09T03:37:25;2.63;;;2.53;;
40995;SDS011;26723;57.478;12.066;2023-05-09T03:40:33;2.73;;;2.30;;
40995;SDS011;26723;57.478;12.066;2023-05-09T03:43:46;2.50;;;2.37;;
40995;SDS011;26723;57.478;12.066;2023-05-09T03:46:54;2.93;;;2.67;;
40995;SDS011;26723;57.478;12.066;2023-05-09T03:50:04;2.57;;;2.47;;
40995;SDS011;26723;57.478;12.066;2023-05-09T03:53:15;2.60;;;2.40;;
40995;SDS011;26723;57.478;12.066;2023-05-09T03:56:26;2.60;;;2.40;;
40995;SDS011;26723;57.478;12.066;2023-05-09T03:59:34;3.27;;;2.47;;
40995;SDS011;26723;57.478;12.066;2023-05-09T04:02:43;3.10;;;2.87;;
40995;SDS011;26723;57.478;12.066;2023-05-09T04:06:01;2.67;;;2.47;;
40995;SDS011;26723;57.478;12.066;2023-05-09T04:09:18;2.47;;;2.33;;
40995;SDS011;26723;57.478;12.066;2023-05-09T04:12:26;3.20;;;2.60;;
40995;SDS011;26723;57.478;12.066;2023-05-09T04:15:36;2.20;;;2.10;;
40995;SDS011;26723;57.478;12.066;2023-05-09T04:18:45;2.80;;;2.50;;
40995;SDS011;26723;57.478;12.066;2023-05-09T04:21:54;2.70;;;2.50;;
40995;SDS011;26723;57.478;12.066;2023-05-09T04:25:04;3.50;;;2.70;;
40995;SDS011;26723;57.478;12.066;2023-05-09T04:28:14;3.08;;;2.88;;
40995;SDS011;26723;57.478;12.066;2023-05-09T04:31:23;2.90;;;2.70;;
40995;SDS011;26723;57.478;12.066;2023-05-09T04:34:32;3.30;;;2.78;;
40995;SDS011;26723;57.478;12.066;2023-05-09T04:37:47;3.23;;;2.87;;
40995;SDS011;26723;57.478;12.066;2023-05-09T04:40:57;3.67;;;2.67;;
40995;SDS011;26723;57.478;12.066;2023-05-09T04:44:06;3.03;;;2.83;;
40995;SDS011;26723;57.478;12.066;2023-05-09T04:47:15;2.70;;;2.50;;
40995;SDS011;26723;57.478;12.066;2023-05-09T04:50:24;3.57;;;3.00;;
40995;SDS011;26723;57.478;12.066;2023-05-09T04:53:32;3.35;;;3.00;;
40995;SDS011;26723;57.478;12.066;2023-05-09T04:56:43;3.03;;;2.83;;
40995;SDS011;26723;57.478;12.066;2023-05-09T04:59:53;3.20;;;2.85;;
40995;SDS011;26723;57.478;12.066;2023-05-09T05:03:02;3.17;;;2.97;;
40995;SDS011;26723;57.478;12.066;2023-05-09T05:06:12;3.28;;;2.97;;
40995;SDS011;26723;57.478;12.066;2023-05-09T05:09:21;3.35;;;3.10;;
40995;SDS011;26723;57.478;12.066;2023-05-09T05:12:31;3.10;;;2.90;;
40995;SDS011;26723;57.478;12.066;2023-05-09T05:15:41;3.38;;;3.10;;
40995;SDS011;26723;57.478;12.066;2023-05-09T05:18:51;3.30;;;3.00;;
40995;SDS011;26723;57.478;12.066;2023-05-09T05:22:00;3.15;;;2.90;;
40995;SDS011;26723;57.478;12.066;2023-05-09T05:25:10;5.45;;;2.95;;
40995;SDS011;26723;57.478;12.066;2023-05-09T05:28:22;3.50;;;2.78;;
40995;SDS011;26723;57.478;12.066;2023-05-09T05:31:31;3.20;;;2.90;;
40995;SDS011;26723;57.478;12.066;2023-05-09T05:34:40;3.50;;;3.10;;
40995;SDS011;26723;57.478;12.066;2023-05-09T05:37:49;3.10;;;2.83;;
40995;SDS011;26723;57.478;12.066;2023-05-09T05:40:58;2.75;;;2.63;;
40995;SDS011;26723;57.478;12.066;2023-05-09T05:44:10;3.42;;;2.80;;
40995;SDS011;26723;57.478;12.066;2023-05-09T05:47:18;4.95;;;2.80;;
40995;SDS011;26723;57.478;12.066;2023-05-09T05:50:28;3.20;;;3.00;;
40995;SDS011;26723;57.478;12.066;2023-05-09T05:53:36;3.15;;;2.95;;
40995;SDS011;26723;57.478;12.066;2023-05-09T05:56:45;3.10;;;2.90;;
40995;SDS011;26723;57.478;12.066;2023-05-09T05:59:55;3.50;;;3.13;;
40995;SDS011;26723;57.478;12.066;2023-05-09T06:03:03;3.80;;;3.50;;
40995;SDS011;26723;57.478;12.066;2023-05-09T06:06:26;6.47;;;3.10;;
40995;SDS011;26723;57.478;12.066;2023-05-09T06:09:34;4.38;;;3.25;;
40995;SDS011;26723;57.478;12.066;2023-05-09T06:12:43;3.40;;;3.10;;
40995;SDS011;26723;57.478;12.066;2023-05-09T06:15:55;3.75;;;3.17;;
40995;SDS011;26723;57.478;12.066;2023-05-09T06:19:17;3.17;;;2.88;;
40995;SDS011;26723;57.478;12.066;2023-05-09T06:22:25;3.17;;;2.97;;
40995;SDS011;26723;57.478;12.066;2023-05-09T06:25:34;2.60;;;2.50;;
40995;SDS011;26723;57.478;12.066;2023-05-09T06:28:42;3.00;;;2.80;;
40995;SDS011;26723;57.478;12.066;2023-05-09T06:31:52;3.28;;;2.83;;
40995;SDS011;26723;57.478;12.066;2023-05-09T06:35:01;4.38;;;3.05;;
40995;SDS011;26723;57.478;12.066;2023-05-09T06:38:09;5.13;;;3.25;;
40995;SDS011;26723;57.478;12.066;2023-05-09T06:41:18;3.40;;;3.20;;
40995;SDS011;26723;57.478;12.066;2023-05-09T06:44:26;3.35;;;2.90;;
40995;SDS011;26723;57.478;12.066;2023-05-09T06:47:36;3.10;;;2.90;;
40995;SDS011;26723;57.478;12.066;2023-05-09T06:50:45;3.33;;;3.03;;
40995;SDS011;26723;57.478;12.066;2023-05-09T06:53:53;3.05;;;2.85;;
40995;SDS011;26723;57.478;12.066;2023-05-09T06:57:02;3.28;;;2.83;;
40995;SDS011;26723;57.478;12.066;2023-05-09T07:00:11;3.05;;;2.80;;
40995;SDS011;26723;57.478;12.066;2023-05-09T07:03:22;3.60;;;3.17;;
40995;SDS011;26723;57.478;12.066;2023-05-09T07:06:30;5.00;;;3.10;;
40995;SDS011;26723;57.478;12.066;2023-05-09T07:09:38;3.30;;;3.00;;
40995;SDS011;26723;57.478;12.066;2023-05-09T07:12:47;3.03;;;2.83;;
40995;SDS011;26723;57.478;12.066;2023-05-09T07:15:56;3.25;;;2.95;;
40995;SDS011;26723;57.478;12.066;2023-05-09T07:19:06;3.20;;;2.92;;
40995;SDS011;26723;57.478;12.066;2023-05-09T07:22:14;2.78;;;2.53;;
40995;SDS011;26723;57.478;12.066;2023-05-09T07:25:23;3.42;;;3.17;;
40995;SDS011;26723;57.478;12.066;2023-05-09T07:28:31;2.60;;;2.40;;
40995;SDS011;26723;57.478;12.066;2023-05-09T07:31:39;2.67;;;2.47;;
40995;SDS011;26723;57.478;12.066;2023-05-09T07:34:49;3.22;;;3.03;;
40995;SDS011;26723;57.478;12.066;2023-05-09T07:37:57;3.15;;;2.78;;
40995;SDS011;26723;57.478;12.066;2023-05-09T07:41:06;2.67;;;2.47;;
40995;SDS011;26723;57.478;12.066;2023-05-09T07:44:14;3.00;;;2.80;;
40995;SDS011;26723;57.478;12.066;2023-05-09T07:47:22;3.13;;;2.70;;
40995;SDS011;26723;57.478;12.066;2023-05-09T07:50:32;3.28;;;2.97;;
40995;SDS011;26723;57.478;12.066;2023-05-09T07:53:41;6.13;;;2.50;;
40995;SDS011;26723;57.478;12.066;2023-05-09T07:56:49;2.83;;;2.63;;
40995;SDS011;26723;57.478;12.066;2023-05-09T07:59:58;2.65;;;2.45;;
40995;SDS011;26723;57.478;12.066;2023-05-09T08:03:06;3.42;;;2.45;;
40995;SDS011;26723;57.478;12.066;2023-05-09T08:06:16;3.10;;;2.30;;
40995;SDS011;26723;57.478;12.066;2023-05-09T08:09:24;2.88;;;2.63;;
40995;SDS011;26723;57.478;12.066;2023-05-09T08:12:33;2.58;;;2.38;;
40995;SDS011;26723;57.478;12.066;2023-05-09T08:15:41;2.63;;;2.42;;
40995;SDS011;26723;57.478;12.066;2023-05-09T08:18:50;2.65;;;2.42;;
40995;SDS011;26723;57.478;12.066;2023-05-09T08:21:59;6.00;;;2.88;;
40995;SDS011;26723;57.478;12.066;2023-05-09T08:25:08;2.28;;;2.13;;
40995;SDS011;26723;57.478;12.066;2023-05-09T08:28:19;3.30;;;2.42;;
40995;SDS011;26723;57.478;12.066;2023-05-09T08:31:29;2.83;;;2.40;;
40995;SDS011;26723;57.478;12.066;2023-05-09T08:34:38;3.60;;;2.60;;
40995;SDS011;26723;57.478;12.066;2023-05-09T08:37:47;2.65;;;2.55;;
40995;SDS011;26723;57.478;12.066;2023-05-09T08:40:59;2.92;;;2.30;;
40995;SDS011;26723;57.478;12.066;2023-05-09T08:44:08;3.70;;;2.28;;
40995;SDS011;26723;57.478;12.066;2023-05-09T08:47:17;5.15;;;2.30;;
40995;SDS011;26723;57.478;12.066;2023-05-09T08:50:28;2.55;;;2.35;;
40995;SDS011;26723;57.478;12.066;2023-05-09T08:53:37;5.13;;;2.28;;
40995;SDS011;26723;57.478;12.066;2023-05-09T08:56:46;6.05;;;2.50;;
40995;SDS011;26723;57.478;12.066;2023-05-09T08:59:55;5.03;;;2.75;;
40995;SDS011;26723;57.478;12.066;2023-05-09T09:03:05;3.13;;;2.22;;
40995;SDS011;26723;57.478;12.066;2023-05-09T09:06:14;2.60;;;2.40;;
40995;SDS011;26723;57.478;12.066;2023-05-09T09:09:24;5.00;;;2.10;;
40995;SDS011;26723;57.478;12.066;2023-05-09T09:12:34;2.38;;;2.22;;
40995;SDS011;26723;57.478;12.066;2023-05-09T09:15:44;2.67;;;2.47;;
40995;SDS011;26723;57.478;12.066;2023-05-09T09:18:54;2.20;;;2.00;;
40995;SDS011;26723;57.478;12.066;2023-05-09T09:22:04;2.38;;;2.28;;
40995;SDS011;26723;57.478;12.066;2023-05-09T09:25:14;2.40;;;1.95;;
40995;SDS011;26723;57.478;12.066;2023-05-09T09:28:23;2.88;;;1.92;;
40995;SDS011;26723;57.478;12.066;2023-05-09T09:31:31;2.00;;;1.90;;
40995;SDS011;26723;57.478;12.066;2023-05-09T09:34:40;2.38;;;2.10;;
40995;SDS011;26723;57.478;12.066;2023-05-09T09:37:48;2.65;;;2.20;;
40995;SDS011;26723;57.478;12.066;2023-05-09T09:41:07;4.07;;;1.95;;
40995;SDS011;26723;57.478;12.066;2023-05-09T09:44:17;2.17;;;1.98;;
40995;SDS011;26723;57.478;12.066;2023-05-09T09:47:30;2.65;;;2.45;;
40995;SDS011;26723;57.478;12.066;2023-05-09T09:50:38;2.42;;;2.05;;
40995;SDS011;26723;57.478;12.066;2023-05-09T09:53:47;2.10;;;2.00;;
40995;SDS011;26723;57.478;12.066;2023-05-09T09:56:56;2.65;;;2.30;;
40995;SDS011;26723;57.478;12.066;2023-05-09T10:00:05;2.30;;;2.10;;
40995;SDS011;26723;57.478;12.066;2023-05-09T10:03:14;2.20;;;2.00;;
40995;SDS011;26723;57.478;12.066;2023-05-09T10:06:23;2.08;;;1.90;;
40995;SDS011;26723;57.478;12.066;2023-05-09T10:09:32;3.05;;;2.45;;
40995;SDS011;26723;57.478;12.066;2023-05-09T10:12:44;3.35;;;2.20;;
40995;SDS011;26723;57.478;12.066;2023-05-09T10:15:54;2.65;;;2.45;;
40995;SDS011;26723;57.478;12.066;2023-05-09T10:19:04;2.50;;;2.30;;
40995;SDS011;26723;57.478;12.066;2023-05-09T10:22:14;4.43;;;2.30;;
40995;SDS011;26723;57.478;12.066;2023-05-09T10:25:26;4.88;;;2.25;;
40995;SDS011;26723;57.478;12.066;2023-05-09T10:28:41;2.40;;;2.20;;
40995;SDS011;26723;57.478;12.066;2023-05-09T10:31:53;2.42;;;2.10;;
40995;SDS011;26723;57.478;12.066;2023-05-09T10:35:06;2.45;;;2.25;;
40995;SDS011;26723;57.478;12.066;2023-05-09T10:38:19;2.30;;;2.05;;
40995;SDS011;26723;57.478;12.066;2023-05-09T10:41:30;2.63;;;1.95;;
40995;SDS011;26723;57.478;12.066;2023-05-09T10:44:40;2.22;;;2.03;;
40995;SDS011;26723;57.478;12.066;2023-05-09T10:47:50;2.17;;;2.00;;
40995;SDS011;26723;57.478;12.066;2023-05-09T10:50:59;3.28;;;2.10;;
40995;SDS011;26723;57.478;12.066;2023-05-09T10:54:12;2.38;;;2.28;;
40995;SDS011;26723;57.478;12.066;2023-05-09T10:57:22;2.28;;;2.08;;
40995;SDS011;26723;57.478;12.066;2023-05-09T11:00:31;1.92;;;1.70;;
40995;SDS011;26723;57.478;12.066;2023-05-09T11:07:05;2.78;;;2.58;;
40995;SDS011;26723;57.478;12.066;2023-05-09T11:10:29;2.50;;;1.98;;
40995;SDS011;26723;57.478;12.066;2023-05-09T11:13:50;2.55;;;2.03;;
40995;SDS011;26723;57.478;12.066;2023-05-09T11:17:06;3.10;;;2.00;;
40995;SDS011;26723;57.478;12.066;2023-05-09T11:20:16;3.75;;;2.10;;
40995;SDS011;26723;57.478;12.066;2023-05-09T11:23:24;3.22;;;1.98;;
40995;SDS011;26723;57.478;12.066;2023-05-09T11:26:34;2.22;;;1.80;;
40995;SDS011;26723;57.478;12.066;2023-05-09T11:29:43;3.60;;;1.80;;
40995;SDS011;26723;57.478;12.066;2023-05-09T11:32:54;1.80;;;1.70;;
40995;SDS011;26723;57.478;12.066;2023-05-09T11:36:14;3.45;;;2.13;;
40995;SDS011;26723;57.478;12.066;2023-05-09T11:39:24;4.28;;;1.95;;
40995;SDS011;26723;57.478;12.066;2023-05-09T11:42:32;2.20;;;2.00;;
40995;SDS011;26723;57.478;12.066;2023-05-09T11:45:41;3.22;;;1.90;;
40995;SDS011;26723;57.478;12.066;2023-05-09T11:48:51;2.47;;;1.80;;
40995;SDS011;26723;57.478;12.066;2023-05-09T11:52:00;2.08;;;1.90;;
40995;SDS011;26723;57.478;12.066;2023-05-09T11:55:09;3.03;;;1.70;;
40995;SDS011;26723;57.478;12.066;2023-05-09T11:58:19;1.92;;;1.83;;
40995;SDS011;26723;57.478;12.066;2023-05-09T12:01:28;2.13;;;1.92;;
40995;SDS011;26723;57.478;12.066;2023-05-09T12:04:38;2.67;;;1.77;;
40995;SDS011;26723;57.478;12.066;2023-05-09T12:07:46;3.10;;;1.80;;
40995;SDS011;26723;57.478;12.066;2023-05-09T12:11:00;2.72;;;1.90;;
40995;SDS011;26723;57.478;12.066;2023-05-09T12:14:24;2.08;;;1.70;;
40995;SDS011;26723;57.478;12.066;2023-05-09T12:17:33;2.47;;;1.67;;
40995;SDS011;26723;57.478;12.066;2023-05-09T12:20:44;1.75;;;1.65;;
40995;SDS011;26723;57.478;12.066;2023-05-09T12:23:55;4.05;;;2.30;;
40995;SDS011;26723;57.478;12.066;2023-05-09T12:27:04;4.10;;;2.00;;
40995;SDS011;26723;57.478;12.066;2023-05-09T12:30:13;1.70;;;1.60;;
40995;SDS011;26723;57.478;12.066;2023-05-09T12:33:24;2.00;;;1.90;;
40995;SDS011;26723;57.478;12.066;2023-05-09T12:36:34;3.78;;;1.90;;
40995;SDS011;26723;57.478;12.066;2023-05-09T12:39:43;3.00;;;1.98;;
40995;SDS011;26723;57.478;12.066;2023-05-09T12:43:06;2.25;;;1.80;;
40995;SDS011;26723;57.478;12.066;2023-05-09T12:46:16;1.85;;;1.70;;
40995;SDS011;26723;57.478;12.066;2023-05-09T12:49:26;2.45;;;1.90;;
40995;SDS011;26723;57.478;12.066;2023-05-09T12:52:37;2.00;;;1.77;;
40995;SDS011;26723;57.478;12.066;2023-05-09T12:56:10;1.83;;;1.73;;
40995;SDS011;26723;57.478;12.066;2023-05-09T12:59:20;3.92;;;2.10;;
40995;SDS011;26723;57.478;12.066;2023-05-09T13:02:32;5.45;;;2.22;;
40995;SDS011;26723;57.478;12.066;2023-05-09T13:05:42;3.53;;;2.15;;
40995;SDS011;26723;57.478;12.066;2023-05-09T13:09:02;2.50;;;1.80;;
40995;SDS011;26723;57.478;12.066;2023-05-09T13:12:12;4.07;;;2.17;;
40995;SDS011;26723;57.478;12.066;2023-05-09T13:15:20;2.40;;;1.98;;
40995;SDS011;26723;57.478;12.066;2023-05-09T13:18:29;4.25;;;2.20;;
40995;SDS011;26723;57.478;12.066;2023-05-09T13:21:38;2.90;;;2.08;;
40995;SDS011;26723;57.478;12.066;2023-05-09T13:24:48;2.28;;;2.15;;
40995;SDS011;26723;57.478;12.066;2023-05-09T13:27:57;2.53;;;1.92;;
40995;SDS011;26723;57.478;12.066;2023-05-09T13:31:05;2.42;;;2.03;;
40995;SDS011;26723;57.478;12.066;2023-05-09T13:34:14;2.22;;;1.92;;
40995;SDS011;26723;57.478;12.066;2023-05-09T13:37:22;4.28;;;1.85;;
40995;SDS011;26723;57.478;12.066;2023-05-09T13:40:33;3.15;;;1.90;;
40995;SDS011;26723;57.478;12.066;2023-05-09T13:43:43;2.00;;;1.90;;
40995;SDS011;26723;57.478;12.066;2023-05-09T13:46:51;2.05;;;1.85;;
40995;SDS011;26723;57.478;12.066;2023-05-09T13:50:00;2.50;;;1.98;;
40995;SDS011;26723;57.478;12.066;2023-05-09T13:53:08;2.50;;;2.30;;
40995;SDS011;26723;57.478;12.066;2023-05-09T13:56:18;2.03;;;1.88;;
40995;SDS011;26723;57.478;12.066;2023-05-09T13:59:26;2.38;;;2.10;;
40995;SDS011;26723;57.478;12.066;2023-05-09T14:02:35;2.42;;;2.00;;
40995;SDS011;26723;57.478;12.066;2023-05-09T14:05:43;2.97;;;2.10;;
40995;SDS011;26723;57.478;12.066;2023-05-09T14:08:53;2.47;;;2.10;;
40995;SDS011;26723;57.478;12.066;2023-05-09T14:12:03;2.08;;;1.90;;
40995;SDS011;26723;57.478;12.066;2023-05-09T14:15:12;3.45;;;1.98;;
40995;SDS011;26723;57.478;12.066;2023-05-09T14:18:21;5.10;;;2.17;;
40995;SDS011;26723;57.478;12.066;2023-05-09T14:21:30;3.95;;;2.08;;
40995;SDS011;26723;57.478;12.066;2023-05-09T14:24:38;4.30;;;1.90;;
40995;SDS011;26723;57.478;12.066;2023-05-09T14:27:48;2.67;;;2.17;;
40995;SDS011;26723;57.478;12.066;2023-05-09T14:30:56;3.63;;;2.05;;
40995;SDS011;26723;57.478;12.066;2023-05-09T14:34:05;3.80;;;2.08;;
40995;SDS011;26723;57.478;12.066;2023-05-09T14:37:14;1.98;;;1.88;;
40995;SDS011;26723;57.478;12.066;2023-05-09T14:40:23;3.20;;;2.00;;
40995;SDS011;26723;57.478;12.066;2023-05-09T14:43:33;1.92;;;1.80;;
40995;SDS011;26723;57.478;12.066;2023-05-09T14:46:41;2.67;;;2.03;;
40995;SDS011;26723;57.478;12.066;2023-05-09T14:49:50;3.38;;;2.00;;
40995;SDS011;26723;57.478;12.066;2023-05-09T14:52:58;2.28;;;2.08;;
40995;SDS011;26723;57.478;12.066;2023-05-09T14:56:07;3.72;;;2.28;;
40995;SDS011;26723;57.478;12.066;2023-05-09T14:59:18;2.40;;;2.10;;
40995;SDS011;26723;57.478;12.066;2023-05-09T15:02:26;2.55;;;2.00;;
40995;SDS011;26723;57.478;12.066;2023-05-09T15:05:35;3.20;;;2.10;;
40995;SDS011;26723;57.478;12.066;2023-05-09T15:08:43;3.35;;;2.10;;
40995;SDS011;26723;57.478;12.066;2023-05-09T15:11:52;3.00;;;1.90;;
40995;SDS011;26723;57.478;12.066;2023-05-09T15:15:12;4.60;;;2.33;;
40995;SDS011;26723;57.478;12.066;2023-05-09T15:18:22;2.47;;;2.28;;
40995;SDS011;26723;57.478;12.066;2023-05-09T15:21:34;2.53;;;2.33;;
40995;SDS011;26723;57.478;12.066;2023-05-09T15:24:42;3.33;;;2.00;;
40995;SDS011;26723;57.478;12.066;2023-05-09T15:27:51;2.20;;;2.00;;
40995;SDS011;26723;57.478;12.066;2023-05-09T15:31:02;4.15;;;2.50;;
40995;SDS011;26723;57.478;12.066;2023-05-09T15:34:11;2.97;;;2.15;;
40995;SDS011;26723;57.478;12.066;2023-05-09T15:37:20;2.55;;;2.15;;
40995;SDS011;26723;57.478;12.066;2023-05-09T15:40:28;2.95;;;2.30;;
40995;SDS011;26723;57.478;12.066;2023-05-09T15:43:37;3.03;;;2.13;;
40995;SDS011;26723;57.478;12.066;2023-05-09T15:46:46;2.80;;;2.22;;
40995;SDS011;26723;57.478;12.066;2023-05-09T15:49:55;3.03;;;2.08;;
40995;SDS011;26723;57.478;12.066;2023-05-09T15:53:03;4.38;;;2.00;;
40995;SDS011;26723;57.478;12.066;2023-05-09T15:56:12;3.15;;;2.15;;
40995;SDS011;26723;57.478;12.066;2023-05-09T15:59:20;2.40;;;2.20;;
40995;SDS011;26723;57.478;12.066;2023-05-09T16:02:30;3.88;;;2.15;;
40995;SDS011;26723;57.478;12.066;2023-05-09T16:05:38;2.85;;;2.35;;
40995;SDS011;26723;57.478;12.066;2023-05-09T16:08:47;2.97;;;2.10;;
40995;SDS011;26723;57.478;12.066;2023-05-09T16:11:56;3.00;;;2.38;;
40995;SDS011;26723;57.478;12.066;2023-05-09T16:15:04;2.28;;;2.08;;
40995;SDS011;26723;57.478;12.066;2023-05-09T16:18:15;2.53;;;2.08;;
40995;SDS011;26723;57.478;12.066;2023-05-09T16:21:24;2.97;;;2.15;;
40995;SDS011;26723;57.478;12.066;2023-05-09T16:24:34;4.95;;;2.20;;
40995;SDS011;26723;57.478;12.066;2023-05-09T16:27:43;3.00;;;2.30;;
40995;SDS011;26723;57.478;12.066;2023-05-09T16:30:52;3.58;;;2.20;;
40995;SDS011;26723;57.478;12.066;2023-05-09T16:34:02;5.80;;;2.38;;
40995;SDS011;26723;57.478;12.066;2023-05-09T16:37:10;2.58;;;2.03;;
40995;SDS011;26723;57.478;12.066;2023-05-09T16:40:19;1.85;;;1.75;;
40995;SDS011;26723;57.478;12.066;2023-05-09T16:43:27;2.78;;;1.80;;
40995;SDS011;26723;57.478;12.066;2023-05-09T16:46:36;2.85;;;1.98;;
40995;SDS011;26723;57.478;12.066;2023-05-09T16:49:45;4.57;;;2.10;;
40995;SDS011;26723;57.478;12.066;2023-05-09T16:52:54;3.47;;;2.28;;
40995;SDS011;26723;57.478;12.066;2023-05-09T16:56:02;3.05;;;2.33;;
40995;SDS011;26723;57.478;12.066;2023-05-09T16:59:12;4.05;;;2.40;;
40995;SDS011;26723;57.478;12.066;2023-05-09T17:02:22;2.03;;;1.80;;
40995;SDS011;26723;57.478;12.066;2023-05-09T17:05:32;2.25;;;2.05;;
40995;SDS011;26723;57.478;12.066;2023-05-09T17:08:41;2.80;;;2.00;;
40995;SDS011;26723;57.478;12.066;2023-05-09T17:11:50;4.85;;;2.55;;
40995;SDS011;26723;57.478;12.066;2023-05-09T17:14:58;3.33;;;2.22;;
40995;SDS011;26723;57.478;12.066;2023-05-09T17:18:07;2.60;;;2.25;;
40995;SDS011;26723;57.478;12.066;2023-05-09T17:21:17;3.75;;;2.00;;
40995;SDS011;26723;57.478;12.066;2023-05-09T17:24:25;4.85;;;2.20;;
40995;SDS011;26723;57.478;12.066;2023-05-09T17:27:34;2.72;;;2.00;;
40995;SDS011;26723;57.478;12.066;2023-05-09T17:30:43;2.55;;;2.15;;
40995;SDS011;26723;57.478;12.066;2023-05-09T17:33:51;2.72;;;2.45;;
40995;SDS011;26723;57.478;12.066;2023-05-09T17:37:01;4.05;;;2.25;;
40995;SDS011;26723;57.478;12.066;2023-05-09T17:40:11;3.03;;;2.20;;
40995;SDS011;26723;57.478;12.066;2023-05-09T17:43:20;3.70;;;2.33;;
40995;SDS011;26723;57.478;12.066;2023-05-09T17:46:30;2.40;;;1.88;;
40995;SDS011;26723;57.478;12.066;2023-05-09T17:49:39;6.22;;;2.35;;
40995;SDS011;26723;57.478;12.066;2023-05-09T17:52:49;3.45;;;2.10;;
40995;SDS011;26723;57.478;12.066;2023-05-09T17:55:58;4.30;;;2.03;;
40995;SDS011;26723;57.478;12.066;2023-05-09T17:59:07;2.42;;;1.90;;
40995;SDS011;26723;57.478;12.066;2023-05-09T18:02:16;3.10;;;2.20;;
40995;SDS011;26723;57.478;12.066;2023-05-09T18:05:26;2.38;;;2.17;;
40995;SDS011;26723;57.478;12.066;2023-05-09T18:08:36;2.53;;;2.10;;
40995;SDS011;26723;57.478;12.066;2023-05-09T18:11:44;2.22;;;2.03;;
40995;SDS011;26723;57.478;12.066;2023-05-09T18:14:52;5.25;;;2.50;;
40995;SDS011;26723;57.478;12.066;2023-05-09T18:18:01;3.85;;;2.25;;
40995;SDS011;26723;57.478;12.066;2023-05-09T18:21:10;2.95;;;1.80;;
40995;SDS011;26723;57.478;12.066;2023-05-09T18:24:20;2.47;;;1.83;;
40995;SDS011;26723;57.478;12.066;2023-05-09T18:27:29;3.15;;;1.92;;
40995;SDS011;26723;57.478;12.066;2023-05-09T18:30:37;4.07;;;2.17;;
40995;SDS011;26723;57.478;12.066;2023-05-09T18:33:46;2.30;;;1.85;;
40995;SDS011;26723;57.478;12.066;2023-05-09T18:36:55;2.53;;;2.00;;
40995;SDS011;26723;57.478;12.066;2023-05-09T18:40:06;3.42;;;2.10;;
40995;SDS011;26723;57.478;12.066;2023-05-09T18:43:20;2.55;;;2.25;;
40995;SDS011;26723;57.478;12.066;2023-05-09T18:46:28;2.75;;;2.20;;
40995;SDS011;26723;57.478;12.066;2023-05-09T18:49:39;3.03;;;2.28;;
40995;SDS011;26723;57.478;12.066;2023-05-09T18:52:47;2.50;;;2.30;;